Time;durP1;ratioP1;P1;durP2;ratioP2;P2;SDS_P1;SDS_P2;PMS_P1;PMS_P2;Temp;Humidity;BMP_temperature;BMP_pressure;BME280_temperature;BME280_humidity;BME280_pressure;Samples;Min_cycle;Max_cycle;Signal;HPM_P1;HPM_P2
2021/10/07 00:01:16;;;;;;;3.80;1.23;;;12.70;84.80;;;;;;4977055;28;20046;-60
2021/10/07 00:03:54;;;;;;;3.08;1.50;;;12.70;85.40;;;;;;4974492;28;20099;-60
2021/10/07 00:06:21;;;;;;;8.40;1.90;;;12.80;85.00;;;;;;4983755;28;20051;-58
2021/10/07 00:08:48;;;;;;;2.83;1.20;;;12.80;84.90;;;;;;4980430;28;20046;-59
2021/10/07 00:11:16;;;;;;;4.38;1.17;;;12.80;84.80;;;;;;4959282;28;20117;-58
2021/10/07 00:13:43;;;;;;;3.67;1.75;;;12.80;84.80;;;;;;4961731;28;20053;-59
2021/10/07 00:16:10;;;;;;;3.40;1.48;;;12.80;84.80;;;;;;4973026;28;20047;-59
2021/10/07 00:18:38;;;;;;;4.80;1.52;;;12.80;84.80;;;;;;4972349;28;20054;-59
2021/10/07 00:21:05;;;;;;;8.13;2.60;;;12.80;85.00;;;;;;4976457;28;20406;-61
2021/10/07 00:23:36;;;;;;;2.15;1.50;;;12.80;84.90;;;;;;4980814;28;20073;-60
2021/10/07 00:26:03;;;;;;;7.95;1.60;;;12.80;85.00;;;;;;4973357;28;20055;-59
2021/10/07 00:28:32;;;;;;;2.63;1.58;;;12.90;85.10;;;;;;4981115;28;20082;-59
2021/10/07 00:31:01;;;;;;;9.88;2.30;;;12.90;85.10;;;;;;4978910;28;20043;-59
2021/10/07 00:33:53;;;;;;;4.70;1.60;;;12.90;85.20;;;;;;4977377;28;20056;-59
2021/10/07 00:36:34;;;;;;;5.85;1.27;;;12.90;85.10;;;;;;4977492;28;20051;-60
2021/10/07 00:39:03;;;;;;;7.60;1.58;;;12.90;85.20;;;;;;4981681;28;20046;-59
2021/10/07 00:41:35;;;;;;;8.65;1.85;;;12.90;85.10;;;;;;4966251;28;20084;-59
2021/10/07 00:44:06;;;;;;;7.78;1.92;;;12.90;85.40;;;;;;4977644;28;20167;-59
2021/10/07 00:46:53;;;;;;;3.80;1.77;;;12.90;85.70;;;;;;4914904;28;10000643;-59
2021/10/07 00:49:21;;;;;;;12.95;3.05;;;12.90;86.40;;;;;;4973534;28;20344;-59
2021/10/07 00:51:48;;;;;;;4.90;1.73;;;12.90;85.60;;;;;;4956493;28;20434;-59
2021/10/07 00:54:16;;;;;;;8.52;1.88;;;13.00;85.60;;;;;;4979485;28;20051;-59
2021/10/07 00:56:43;;;;;;;4.57;1.67;;;13.00;85.50;;;;;;4972596;28;20506;-59
2021/10/07 00:59:10;;;;;;;4.28;1.33;;;13.00;85.50;;;;;;4978313;28;20050;-59
2021/10/07 01:01:37;;;;;;;7.10;1.70;;;13.10;85.40;;;;;;4974799;28;20051;-60
2021/10/07 01:04:04;;;;;;;8.23;1.58;;;13.10;85.40;;;;;;4974568;28;20054;-60
2021/10/07 01:06:31;;;;;;;5.63;1.95;;;13.10;85.40;;;;;;4980598;28;20121;-59
2021/10/07 01:09:02;;;;;;;8.60;1.60;;;13.10;85.30;;;;;;4973775;28;20508;-60
2021/10/07 01:11:29;;;;;;;8.30;1.55;;;13.10;85.50;;;;;;4954683;28;20074;-59
2021/10/07 01:13:56;;;;;;;4.50;1.50;;;13.20;85.30;;;;;;4979755;28;20085;-59
2021/10/07 01:16:23;;;;;;;7.07;1.50;;;13.20;85.20;;;;;;4977020;28;21208;-59
2021/10/07 01:18:50;;;;;;;6.95;1.40;;;13.20;85.30;;;;;;4967120;28;20046;-59
2021/10/07 01:21:17;;;;;;;6.95;1.50;;;13.20;85.30;;;;;;4976610;28;20334;-60
2021/10/07 01:23:45;;;;;;;5.00;1.20;;;13.30;85.20;;;;;;4981736;28;20420;-59
2021/10/07 01:26:13;;;;;;;9.80;1.83;;;13.30;85.10;;;;;;4979287;28;20054;-59
2021/10/07 01:28:44;;;;;;;8.38;2.20;;;13.30;85.20;;;;;;4975906;28;20089;-61
2021/10/07 01:31:11;;;;;;;6.13;1.50;;;13.40;85.20;;;;;;4962848;28;20097;-60
2021/10/07 01:33:38;;;;;;;8.32;2.35;;;13.30;85.00;;;;;;4983609;28;20043;-60
2021/10/07 01:36:05;;;;;;;8.02;2.42;;;13.40;85.40;;;;;;4976891;28;20559;-61
2021/10/07 01:38:32;;;;;;;6.97;1.70;;;13.30;85.50;;;;;;4976635;28;20141;-59
2021/10/07 01:40:59;;;;;;;6.03;1.73;;;13.30;85.60;;;;;;4980802;28;20089;-60
2021/10/07 01:43:26;;;;;;;4.30;2.03;;;13.40;85.80;;;;;;4980052;28;20152;-59
2021/10/07 01:45:52;;;;;;;6.40;1.63;;;13.30;85.90;;;;;;4964401;28;20089;-59
2021/10/07 01:48:19;;;;;;;3.70;1.52;;;13.30;86.00;;;;;;4976924;28;20081;-59
2021/10/07 01:50:46;;;;;;;9.57;1.60;;;13.20;86.20;;;;;;4975728;28;20105;-59
2021/10/07 01:53:13;;;;;;;5.60;1.95;;;13.20;86.20;;;;;;4981659;28;20558;-59
2021/10/07 01:55:40;;;;;;;7.75;1.70;;;13.20;86.40;;;;;;4964675;28;20046;-58
2021/10/07 01:58:06;;;;;;;3.03;1.35;;;13.20;86.40;;;;;;4958221;28;20226;-59
2021/10/07 02:00:33;;;;;;;6.75;1.65;;;13.20;86.40;;;;;;4981089;28;20089;-59
2021/10/07 02:03:00;;;;;;;7.05;1.48;;;13.20;86.40;;;;;;4985308;28;20342;-60
2021/10/07 02:05:27;;;;;;;4.70;1.30;;;13.30;86.30;;;;;;4977364;28;20085;-58
2021/10/07 02:07:53;;;;;;;8.68;1.45;;;13.30;86.30;;;;;;4976283;28;20050;-60
2021/10/07 02:10:21;;;;;;;13.18;1.58;;;13.30;86.20;;;;;;4965453;28;20043;-60
2021/10/07 02:12:48;;;;;;;8.00;1.48;;;13.30;86.10;;;;;;4980440;28;20089;-59
2021/10/07 02:15:16;;;;;;;4.22;1.20;;;13.40;86.10;;;;;;4979487;28;20047;-60
2021/10/07 02:17:43;;;;;;;6.22;1.65;;;13.40;86.00;;;;;;4979203;28;20058;-59
2021/10/07 02:20:10;;;;;;;7.60;1.52;;;13.40;85.80;;;;;;4981333;28;20090;-59
2021/10/07 02:22:37;;;;;;;6.75;1.55;;;13.40;85.80;;;;;;4981789;28;20042;-60
2021/10/07 02:25:04;;;;;;;7.95;1.77;;;13.40;85.80;;;;;;4981305;28;20042;-60
2021/10/07 02:27:31;;;;;;;11.45;2.80;;;13.40;85.70;;;;;;4985390;28;20478;-61
2021/10/07 02:29:58;;;;;;;8.20;2.20;;;13.40;86.30;;;;;;4985531;28;20058;-60
2021/10/07 02:32:25;;;;;;;7.30;1.65;;;13.40;85.70;;;;;;4982030;28;20050;-68
2021/10/07 02:34:52;;;;;;;5.95;1.85;;;13.40;85.80;;;;;;4991141;28;20042;-61
2021/10/07 02:37:18;;;;;;;5.72;1.77;;;13.40;85.90;;;;;;4980926;28;20089;-59
2021/10/07 02:39:46;;;;;;;9.75;1.70;;;13.40;85.90;;;;;;4968448;28;20053;-59
2021/10/07 02:42:13;;;;;;;5.78;1.17;;;13.40;86.00;;;;;;4984055;28;20073;-59
2021/10/07 02:44:39;;;;;;;8.68;2.28;;;13.50;86.10;;;;;;4976093;28;20576;-60
2021/10/07 02:47:06;;;;;;;10.95;1.77;;;13.50;86.10;;;;;;4982767;28;20141;-58
2021/10/07 02:49:33;;;;;;;11.10;1.70;;;13.50;86.20;;;;;;4987022;28;20105;-58
2021/10/07 02:52:00;;;;;;;5.97;2.13;;;13.40;86.00;;;;;;4979719;28;20050;-59
2021/10/07 02:54:26;;;;;;;6.32;1.50;;;13.40;86.20;;;;;;4979109;28;20054;-59
2021/10/07 02:56:53;;;;;;;8.00;1.70;;;13.40;86.20;;;;;;4986011;28;20043;-59
2021/10/07 02:59:20;;;;;;;4.75;1.98;;;13.40;86.30;;;;;;4983418;28;20046;-59
2021/10/07 03:01:47;;;;;;;11.07;1.80;;;13.40;86.50;;;;;;4960661;28;20070;-59
2021/10/07 03:04:15;;;;;;;12.75;2.72;;;13.40;86.50;;;;;;4982887;28;20062;-59
2021/10/07 03:06:42;;;;;;;6.43;1.48;;;13.40;86.70;;;;;;4986230;28;20097;-60
2021/10/07 03:09:09;;;;;;;9.65;1.33;;;13.40;86.70;;;;;;4980939;28;20047;-59
2021/10/07 03:11:35;;;;;;;6.13;1.73;;;13.40;86.80;;;;;;4985718;28;20102;-59
2021/10/07 03:14:02;;;;;;;8.63;1.63;;;13.30;86.90;;;;;;4980948;28;20084;-59
2021/10/07 03:16:29;;;;;;;5.43;1.65;;;13.30;87.10;;;;;;4980400;28;20082;-58
2021/10/07 03:18:56;;;;;;;7.13;1.42;;;13.30;87.10;;;;;;4959034;28;20058;-60
2021/10/07 03:21:23;;;;;;;5.60;1.52;;;13.30;87.10;;;;;;4980320;28;20089;-60
2021/10/07 03:23:50;;;;;;;9.50;2.28;;;13.40;87.30;;;;;;4977808;28;20051;-59
2021/10/07 03:26:17;;;;;;;6.47;1.65;;;13.40;87.40;;;;;;4984964;28;20394;-60
2021/10/07 03:28:44;;;;;;;10.50;1.90;;;13.40;87.50;;;;;;4981813;28;20054;-63
2021/10/07 03:31:10;;;;;;;6.15;1.33;;;13.40;87.60;;;;;;4975507;28;20396;-59
2021/10/07 03:33:37;;;;;;;3.55;1.50;;;13.40;87.80;;;;;;4980875;28;20056;-58
2021/10/07 03:36:04;;;;;;;10.80;1.73;;;13.40;87.80;;;;;;4977665;28;20070;-59
2021/10/07 03:38:31;;;;;;;4.47;1.75;;;13.40;87.90;;;;;;4987749;28;20054;-61
2021/10/07 03:40:57;;;;;;;7.13;1.30;;;13.40;88.00;;;;;;4986808;28;20054;-59
2021/10/07 03:43:24;;;;;;;9.82;1.70;;;13.40;88.00;;;;;;4978472;28;20053;-60
2021/10/07 03:45:51;;;;;;;7.88;1.92;;;13.40;88.10;;;;;;4980222;28;20046;-59
2021/10/07 03:48:18;;;;;;;7.45;2.13;;;13.40;88.20;;;;;;4985327;28;20058;-59
2021/10/07 03:50:45;;;;;;;10.10;1.92;;;13.50;88.40;;;;;;4981453;28;20046;-59
2021/10/07 03:53:12;;;;;;;8.38;1.48;;;13.50;88.50;;;;;;4977361;28;20525;-59
2021/10/07 03:55:38;;;;;;;13.95;1.75;;;13.40;88.60;;;;;;4982473;28;20126;-59
2021/10/07 03:58:05;;;;;;;11.38;2.72;;;13.50;88.60;;;;;;4982047;28;20588;-60
2021/10/07 04:00:32;;;;;;;6.72;1.50;;;13.50;88.70;;;;;;4979108;28;20110;-60
2021/10/07 04:03:05;;;;;;;7.05;1.20;;;13.50;88.80;;;;;;4973687;28;20050;-59
2021/10/07 04:05:31;;;;;;;18.20;2.53;;;13.50;89.20;;;;;;4964886;28;20247;-59
2021/10/07 04:07:58;;;;;;;11.38;1.98;;;13.50;88.90;;;;;;4979886;28;20312;-59
2021/10/07 04:10:26;;;;;;;8.48;1.95;;;13.50;88.80;;;;;;4978260;28;20307;-59
2021/10/07 04:12:52;;;;;;;8.60;1.70;;;13.60;88.90;;;;;;4986116;28;20046;-58
2021/10/07 04:15:19;;;;;;;8.45;1.52;;;13.60;88.90;;;;;;4979318;28;20078;-58
2021/10/07 04:17:46;;;;;;;7.95;1.73;;;13.60;89.00;;;;;;4968999;28;20105;-59
2021/10/07 04:20:13;;;;;;;7.25;1.58;;;13.60;89.00;;;;;;4980230;28;20050;-59
2021/10/07 04:22:40;;;;;;;9.32;1.80;;;13.60;89.00;;;;;;4975701;28;20560;-59
2021/10/07 04:25:06;;;;;;;10.50;2.28;;;13.70;89.00;;;;;;4983334;28;20129;-59
2021/10/07 04:27:34;;;;;;;9.88;1.65;;;13.70;89.20;;;;;;4966394;28;20043;-59
2021/10/07 04:30:02;;;;;;;9.13;1.90;;;13.70;89.90;;;;;;4976784;28;20137;-58
2021/10/07 04:32:29;;;;;;;9.48;1.77;;;13.70;89.30;;;;;;4979182;28;20391;-60
2021/10/07 04:34:55;;;;;;;5.32;2.13;;;13.70;89.60;;;;;;4984208;28;20120;-59
2021/10/07 04:37:22;;;;;;;12.38;2.72;;;13.70;89.70;;;;;;4981190;28;20046;-59
2021/10/07 04:39:49;;;;;;;21.50;3.88;;;13.70;89.80;;;;;;4974827;28;20308;-60
2021/10/07 04:42:16;;;;;;;11.65;1.98;;;13.70;90.00;;;;;;4982506;28;20078;-59
2021/10/07 04:44:42;;;;;;;8.13;1.77;;;13.70;90.00;;;;;;4981495;28;20082;-59
2021/10/07 04:47:10;;;;;;;13.68;2.47;;;13.70;90.30;;;;;;4979330;28;20046;-59
2021/10/07 04:49:37;;;;;;;12.13;3.25;;;13.80;90.10;;;;;;4978816;28;20109;-59
2021/10/07 04:52:04;;;;;;;12.50;2.70;;;13.80;90.10;;;;;;4982626;28;20081;-59
2021/10/07 04:54:31;;;;;;;15.27;2.90;;;13.80;90.10;;;;;;4977922;28;20137;-59
2021/10/07 04:56:58;;;;;;;15.05;3.35;;;13.80;90.10;;;;;;4965105;28;20050;-59
2021/10/07 04:59:24;;;;;;;14.95;3.17;;;13.80;90.20;;;;;;4970388;28;20192;-60
2021/10/07 05:01:51;;;;;;;17.65;3.75;;;13.80;90.20;;;;;;4977984;28;20089;-60
2021/10/07 05:04:18;;;;;;;19.95;3.72;;;13.90;90.40;;;;;;4984132;28;20054;-60
2021/10/07 05:06:45;;;;;;;18.67;4.78;;;13.80;90.30;;;;;;4978865;28;20480;-59
2021/10/07 05:09:12;;;;;;;17.63;3.92;;;13.80;90.30;;;;;;4973110;28;20129;-60
2021/10/07 05:11:38;;;;;;;18.02;3.63;;;13.80;90.40;;;;;;4982165;28;20479;-59
2021/10/07 05:14:05;;;;;;;12.85;3.40;;;13.90;90.40;;;;;;4982316;28;20039;-59
2021/10/07 05:16:32;;;;;;;15.23;3.30;;;13.90;90.40;;;;;;4975384;28;20129;-60
2021/10/07 05:18:59;;;;;;;16.05;3.90;;;13.90;90.50;;;;;;4978772;28;20046;-59
2021/10/07 05:21:26;;;;;;;12.02;3.15;;;13.90;90.50;;;;;;4977194;28;20042;-59
2021/10/07 05:23:52;;;;;;;14.23;2.95;;;14.00;90.50;;;;;;4979338;28;20147;-59
2021/10/07 05:26:19;;;;;;;17.13;4.03;;;14.00;90.60;;;;;;4982769;28;20074;-60
2021/10/07 05:28:46;;;;;;;18.90;3.50;;;14.00;90.60;;;;;;4960798;28;20487;-59
2021/10/07 05:31:17;;;;;;;19.85;3.85;;;14.00;90.70;;;;;;4976421;28;20047;-59
2021/10/07 05:33:44;;;;;;;19.10;4.47;;;14.00;90.70;;;;;;4979018;28;20069;-58
2021/10/07 05:36:11;;;;;;;33.53;5.20;;;14.00;90.80;;;;;;4977897;28;20058;-59
2021/10/07 05:38:38;;;;;;;24.88;5.03;;;14.00;90.90;;;;;;4976742;28;20085;-60
2021/10/07 05:41:05;;;;;;;12.55;4.68;;;14.10;91.00;;;;;;4974014;28;20081;-59
2021/10/07 05:43:32;;;;;;;14.40;3.28;;;14.10;91.00;;;;;;4964412;28;20073;-59
2021/10/07 05:45:59;;;;;;;21.33;4.00;;;14.10;91.10;;;;;;4974818;28;20101;-59
2021/10/07 05:48:27;;;;;;;15.70;2.85;;;14.10;91.10;;;;;;4975831;28;20053;-60
2021/10/07 05:50:54;;;;;;;23.48;4.25;;;14.10;91.30;;;;;;4983614;28;20365;-59
2021/10/07 05:53:21;;;;;;;23.75;4.40;;;14.10;91.40;;;;;;4978790;28;20074;-60
2021/10/07 05:55:48;;;;;;;20.40;4.35;;;14.20;91.50;;;;;;4976688;28;20089;-60
2021/10/07 05:58:14;;;;;;;21.95;4.18;;;14.20;91.50;;;;;;4987573;28;20228;-59
2021/10/07 06:00:41;;;;;;;18.27;3.65;;;14.20;91.60;;;;;;4975247;28;20189;-59
2021/10/07 06:03:09;;;;;;;12.60;3.55;;;14.20;91.80;;;;;;4980287;28;20046;-59
2021/10/07 06:05:40;;;;;;;16.45;3.42;;;14.30;92.00;;;;;;4966607;28;20051;-59
2021/10/07 06:08:07;;;;;;;18.52;4.15;;;14.30;92.20;;;;;;4988788;28;20102;-59
2021/10/07 06:10:34;;;;;;;18.33;4.72;;;14.30;92.00;;;;;;4985858;28;20046;-59
2021/10/07 06:13:01;;;;;;;17.20;4.50;;;14.30;92.10;;;;;;4989439;28;20133;-59
2021/10/07 06:15:27;;;;;;;16.55;5.38;;;14.30;92.10;;;;;;4985887;28;20426;-60
2021/10/07 06:17:55;;;;;;;12.50;4.65;;;14.30;92.20;;;;;;4984604;28;20133;-61
2021/10/07 06:22:55;;;;;;;13.57;4.43;;;14.40;92.30;;;;;;4986154;28;20058;-59
2021/10/07 06:25:22;;;;;;;19.40;6.47;;;14.40;92.40;;;;;;4982421;28;20078;-59
2021/10/07 06:27:50;;;;;;;18.27;4.35;;;14.40;92.40;;;;;;4982206;28;20047;-59
2021/10/07 06:30:17;;;;;;;18.17;5.20;;;14.40;92.50;;;;;;4985899;28;20042;-59
2021/10/07 06:32:44;;;;;;;18.65;4.88;;;14.40;92.40;;;;;;4987427;28;20046;-59
2021/10/07 06:35:11;;;;;;;17.58;4.13;;;14.40;92.50;;;;;;4988190;28;20572;-60
2021/10/07 06:37:38;;;;;;;21.73;5.45;;;14.40;92.50;;;;;;4976351;28;20046;-58
2021/10/07 06:40:06;;;;;;;15.50;3.80;;;14.50;92.60;;;;;;4986094;28;20432;-58
2021/10/07 06:42:33;;;;;;;13.38;3.78;;;14.50;92.60;;;;;;4977450;28;20090;-58
2021/10/07 06:45:01;;;;;;;16.00;4.38;;;14.50;92.60;;;;;;4983868;28;20415;-56
2021/10/07 06:47:27;;;;;;;13.38;4.45;;;14.50;93.00;;;;;;4988440;28;20524;-55
2021/10/07 06:49:54;;;;;;;13.20;5.15;;;14.50;92.80;;;;;;4981267;28;20049;-58
2021/10/07 06:52:21;;;;;;;17.38;6.05;;;14.60;92.80;;;;;;4979539;28;20054;-55
2021/10/07 06:54:48;;;;;;;16.77;5.00;;;14.60;92.80;;;;;;4987819;28;20502;-56
2021/10/07 06:57:15;;;;;;;15.93;5.43;;;14.60;92.90;;;;;;4984614;28;20380;-57
2021/10/07 06:59:41;;;;;;;14.10;6.95;;;14.60;92.90;;;;;;4979862;28;20054;-58
2021/10/07 07:02:08;;;;;;;13.80;5.88;;;14.70;93.00;;;;;;4984366;28;20074;-57
2021/10/07 07:04:35;;;;;;;20.63;10.05;;;14.70;92.90;;;;;;4987673;28;20498;-55
2021/10/07 07:07:02;;;;;;;18.63;5.75;;;14.70;92.90;;;;;;4963474;28;20050;-57
2021/10/07 07:09:29;;;;;;;20.65;7.15;;;14.70;92.90;;;;;;4976863;28;20051;-56
2021/10/07 07:12:14;;;;;;;19.63;7.38;;;14.80;92.90;;;;;;4981954;28;20050;-56
2021/10/07 07:14:41;;;;;;;16.27;7.00;;;14.80;92.90;;;;;;4982382;28;20097;-58
2021/10/07 07:17:09;;;;;;;12.20;6.20;;;14.80;93.00;;;;;;4979269;28;20077;-61
2021/10/07 07:19:38;;;;;;;12.65;6.28;;;14.90;92.90;;;;;;4978910;28;20082;-58
2021/10/07 07:22:05;;;;;;;14.35;5.88;;;14.90;92.80;;;;;;4983011;28;20170;-59
2021/10/07 07:24:34;;;;;;;14.43;5.90;;;15.00;92.80;;;;;;4979543;28;20123;-57
2021/10/07 07:27:01;;;;;;;13.80;5.82;;;15.00;92.90;;;;;;4978298;28;20054;-58
2021/10/07 07:29:27;;;;;;;9.65;4.65;;;15.10;92.80;;;;;;4977819;28;20500;-58
2021/10/07 07:31:54;;;;;;;14.60;6.05;;;15.10;92.90;;;;;;4982325;28;20046;-57
2021/10/07 07:34:21;;;;;;;12.98;5.45;;;15.10;92.90;;;;;;4975441;28;20054;-58
2021/10/07 07:36:48;;;;;;;17.63;6.20;;;15.10;92.80;;;;;;4980794;28;20054;-58
2021/10/07 07:39:15;;;;;;;13.75;5.88;;;15.20;92.80;;;;;;4967436;28;20100;-58
2021/10/07 07:41:42;;;;;;;18.77;5.10;;;15.20;92.70;;;;;;4968840;28;20042;-57
2021/10/07 07:44:09;;;;;;;17.73;4.45;;;15.30;92.80;;;;;;4968492;28;20092;-58
2021/10/07 07:46:35;;;;;;;16.85;4.32;;;15.30;92.80;;;;;;4629865;28;10000182;-58
2021/10/07 07:49:02;;;;;;;12.70;4.22;;;15.30;92.70;;;;;;4964591;28;20042;-58
2021/10/07 07:51:32;;;;;;;19.58;5.43;;;15.40;92.70;;;;;;4975466;28;20852;-59
2021/10/07 07:53:59;;;;;;;9.93;3.72;;;15.40;92.60;;;;;;4982335;28;20093;-57
2021/10/07 07:56:25;;;;;;;11.27;3.92;;;15.40;92.60;;;;;;4984315;28;20077;-59
2021/10/07 07:58:53;;;;;;;13.25;3.80;;;15.50;92.60;;;;;;4979327;28;20074;-58
2021/10/07 08:01:21;;;;;;;9.27;4.00;;;15.50;92.60;;;;;;4977577;28;20055;-58
2021/10/07 08:03:49;;;;;;;11.18;3.45;;;15.60;92.50;;;;;;4981746;28;20074;-59
2021/10/07 08:06:16;;;;;;;14.10;3.53;;;15.60;92.50;;;;;;4983256;28;20085;-59
2021/10/07 08:08:42;;;;;;;11.05;3.00;;;15.60;92.80;;;;;;4979972;28;20057;-60
2021/10/07 08:11:09;;;;;;;13.15;3.15;;;15.70;92.50;;;;;;4981920;28;20077;-59
2021/10/07 08:13:36;;;;;;;7.88;3.20;;;15.60;92.50;;;;;;4982059;28;20599;-59
2021/10/07 08:16:03;;;;;;;7.88;3.20;;;15.70;92.60;;;;;;4954868;28;20533;-58
2021/10/07 08:18:30;;;;;;;9.18;3.53;;;15.70;92.60;;;;;;4981036;28;20057;-58
2021/10/07 08:20:57;;;;;;;8.80;3.42;;;15.80;92.60;;;;;;4974493;28;20093;-58
2021/10/07 08:23:28;;;;;;;6.55;2.55;;;15.80;92.50;;;;;;4979950;28;20102;-58
2021/10/07 08:25:55;;;;;;;5.25;2.60;;;15.90;92.50;;;;;;4983595;28;20431;-58
2021/10/07 08:28:22;;;;;;;8.88;2.42;;;15.90;92.50;;;;;;4978370;28;20105;-58
2021/10/07 08:30:49;;;;;;;4.20;2.67;;;16.00;92.70;;;;;;4975024;28;20047;-58
2021/10/07 08:33:17;;;;;;;12.00;3.00;;;16.00;92.60;;;;;;4972252;28;20493;-59
2021/10/07 08:35:44;;;;;;;7.63;3.17;;;16.10;92.70;;;;;;4977505;28;20117;-59
2021/10/07 08:38:12;;;;;;;8.18;3.08;;;16.10;92.60;;;;;;4985061;28;20377;-59
2021/10/07 08:40:39;;;;;;;6.95;3.00;;;16.00;92.60;;;;;;4978623;28;20094;-60
2021/10/07 08:43:05;;;;;;;5.07;2.78;;;16.10;92.50;;;;;;4984356;28;20042;-59
2021/10/07 08:45:32;;;;;;;5.88;2.25;;;16.20;92.60;;;;;;4980675;28;20653;-59
2021/10/07 08:47:59;;;;;;;5.05;2.35;;;16.20;92.40;;;;;;4984331;28;20074;-58
2021/10/07 08:50:26;;;;;;;5.97;2.28;;;16.20;92.40;;;;;;4979844;28;20081;-58
2021/10/07 08:52:53;;;;;;;4.95;2.38;;;16.30;92.50;;;;;;4977732;28;20043;-59
2021/10/07 08:55:20;;;;;;;6.88;2.38;;;16.30;92.40;;;;;;4980710;28;20074;-59
2021/10/07 08:57:47;;;;;;;6.43;2.50;;;16.40;92.60;;;;;;4979653;28;20120;-58
2021/10/07 09:00:15;;;;;;;7.22;2.42;;;16.40;92.30;;;;;;4975979;28;20177;-58
2021/10/07 09:02:42;;;;;;;7.43;2.40;;;16.50;92.20;;;;;;4976325;28;20096;-58
2021/10/07 09:05:12;;;;;;;5.05;2.22;;;16.50;92.40;;;;;;4970216;28;20046;-61
2021/10/07 09:07:54;;;;;;;4.07;2.08;;;16.50;92.30;;;;;;4981411;28;20528;-59
2021/10/07 09:10:45;;;;;;;7.22;2.42;;;16.50;92.50;;;;;;4981343;28;20058;-57
2021/10/07 09:13:21;;;;;;;5.88;3.50;;;16.60;92.50;;;;;;4978507;28;20042;-60
2021/10/07 09:15:52;;;;;;;5.95;2.72;;;16.60;92.30;;;;;;4977113;28;20505;-58
2021/10/07 09:18:19;;;;;;;8.77;2.90;;;16.60;92.20;;;;;;4981922;28;20074;-57
2021/10/07 09:20:48;;;;;;;11.60;3.42;;;16.60;92.50;;;;;;4983811;28;20085;-57
2021/10/07 09:23:18;;;;;;;7.95;3.13;;;16.60;92.20;;;;;;4956650;28;20577;-58
2021/10/07 09:25:55;;;;;;;11.50;3.25;;;16.60;92.10;;;;;;4981699;28;20054;-58
2021/10/07 09:28:22;;;;;;;5.53;2.67;;;16.60;92.50;;;;;;4968108;28;20248;-58
2021/10/07 09:30:54;;;;;;;7.18;2.83;;;16.60;92.20;;;;;;4976370;28;20050;-58
2021/10/07 09:33:37;;;;;;;6.93;3.45;;;16.60;92.10;;;;;;4963567;28;20524;-58
2021/10/07 09:36:14;;;;;;;9.82;3.38;;;16.70;92.40;;;;;;4976168;28;20145;-58
2021/10/07 09:38:41;;;;;;;9.93;4.15;;;16.70;92.30;;;;;;4974353;28;20590;-59
2021/10/07 09:41:13;;;;;;;6.60;3.17;;;16.70;92.10;;;;;;4976152;28;20106;-58
2021/10/07 09:43:52;;;;;;;14.73;4.05;;;16.70;92.10;;;;;;4982274;28;20340;-58
2021/10/07 09:46:43;;;;;;;7.55;3.55;;;16.60;92.30;;;;;;4979824;28;20089;-58
2021/10/07 09:49:12;;;;;;;10.75;3.80;;;16.70;92.40;;;;;;4967043;28;20046;-58
2021/10/07 09:51:46;;;;;;;8.00;3.25;;;16.70;92.20;;;;;;4974397;28;20050;-58
2021/10/07 09:54:24;;;;;;;7.57;3.03;;;16.70;92.10;;;;;;4978593;28;20074;-58
2021/10/07 09:57:01;;;;;;;12.65;3.50;;;16.80;92.30;;;;;;4979620;28;20054;-58
2021/10/07 09:59:29;;;;;;;6.30;2.83;;;16.80;92.00;;;;;;4973712;28;20513;-58
2021/10/07 10:01:56;;;;;;;9.48;3.40;;;16.80;91.90;;;;;;4974346;28;20054;-58
2021/10/07 10:04:24;;;;;;;11.20;3.53;;;16.90;92.00;;;;;;4961774;28;20093;-59
2021/10/07 10:06:51;;;;;;;9.45;3.35;;;16.90;92.00;;;;;;4975979;28;20141;-58
2021/10/07 10:09:24;;;;;;;9.02;4.03;;;16.90;92.00;;;;;;4963869;28;20070;-59
2021/10/07 10:11:51;;;;;;;;;;;16.90;91.90;;;;;;4974854;28;20145;-58
2021/10/07 10:14:20;;;;;;;13.95;3.40;;;16.90;92.20;;;;;;4972909;28;19984;-58
2021/10/07 10:16:47;;;;;;;12.32;3.72;;;16.90;92.00;;;;;;4981009;28;20085;-58
2021/10/07 10:19:14;;;;;;;10.60;4.00;;;16.90;91.80;;;;;;4978787;28;20187;-58
2021/10/07 10:21:41;;;;;;;7.88;3.70;;;17.00;91.80;;;;;;4974677;28;20078;-58
2021/10/07 10:24:08;;;;;;;9.27;3.63;;;17.00;91.80;;;;;;4977232;28;20133;-58
2021/10/07 10:26:36;;;;;;;12.93;3.78;;;17.00;91.80;;;;;;4980590;28;20555;-58
2021/10/07 10:29:03;;;;;;;8.57;3.75;;;17.00;91.80;;;;;;4961543;28;20137;-58
2021/10/07 10:31:42;;;;;;;7.35;3.30;;;17.00;91.80;;;;;;4973669;28;20074;-58
2021/10/07 10:34:11;;;;;;;5.97;3.17;;;17.00;91.80;;;;;;4968143;28;20087;-59
2021/10/07 10:36:51;;;;;;;9.77;3.70;;;17.00;91.80;;;;;;4965907;28;20070;-58
2021/10/07 10:39:26;;;;;;;7.97;3.33;;;17.00;91.80;;;;;;4968034;28;20074;-59
2021/10/07 10:42:02;;;;;;;11.27;3.65;;;17.00;91.80;;;;;;4981795;28;20457;-58
2021/10/07 10:45:03;;;;;;;15.13;4.07;;;17.10;91.80;;;;;;4964524;28;20130;-58
2021/10/07 10:47:50;;;;;;;12.77;4.30;;;17.10;92.20;;;;;;4942437;28;20461;-58
2021/10/07 10:50:17;;;;;;;9.88;4.03;;;17.10;91.80;;;;;;4977377;28;20456;-59
2021/10/07 10:52:53;;;;;;;12.30;3.95;;;17.10;91.60;;;;;;4959789;28;20074;-58
2021/10/07 10:55:24;;;;;;;15.95;5.07;;;17.20;91.60;;;;;;4983104;28;20403;-59
2021/10/07 10:57:59;;;;;;;11.70;4.63;;;17.20;91.70;;;;;;4984895;28;20125;-59
2021/10/07 11:00:29;;;;;;;13.52;4.50;;;17.30;91.50;;;;;;4982537;28;20054;-58
2021/10/07 11:03:08;;;;;;;10.70;4.60;;;17.20;91.50;;;;;;4977883;28;20049;-58
2021/10/07 11:05:41;;;;;;;13.82;3.97;;;17.20;91.60;;;;;;4978963;28;20524;-58
2021/10/07 11:08:19;;;;;;;11.80;4.28;;;17.20;91.60;;;;;;4984729;28;20038;-57
2021/10/07 11:11:04;;;;;;;17.05;4.60;;;17.10;91.70;;;;;;4984705;28;20537;-59
2021/10/07 11:13:33;;;;;;;15.77;5.15;;;17.10;91.60;;;;;;4972566;28;20057;-58
2021/10/07 11:16:02;;;;;;;16.80;5.35;;;17.20;91.60;;;;;;4983205;28;20064;-59
2021/10/07 11:18:35;;;;;;;11.73;5.38;;;17.30;91.60;;;;;;4975516;28;20061;-58
2021/10/07 11:21:05;;;;;;;17.70;5.47;;;17.30;91.50;;;;;;4971192;28;20469;-58
2021/10/07 11:23:33;;;;;;;19.05;5.30;;;17.40;91.50;;;;;;4984179;28;20073;-59
2021/10/07 11:26:00;;;;;;;19.55;5.93;;;17.50;91.30;;;;;;4981768;28;20053;-58
2021/10/07 11:28:31;;;;;;;19.50;5.32;;;17.50;91.30;;;;;;4985082;28;20469;-58
2021/10/07 11:31:05;;;;;;;16.15;4.45;;;17.50;91.30;;;;;;4969379;28;20118;-58
2021/10/07 11:33:32;;;;;;;12.38;4.78;;;17.60;91.20;;;;;;4976550;28;20523;-58
2021/10/07 11:36:00;;;;;;;11.93;4.68;;;17.60;91.20;;;;;;4981811;28;20085;-60
2021/10/07 11:38:27;;;;;;;14.10;4.13;;;17.70;91.10;;;;;;4981652;28;20069;-59
2021/10/07 11:40:54;;;;;;;17.08;4.53;;;17.70;91.10;;;;;;4978184;28;20054;-60
2021/10/07 11:43:26;;;;;;;13.93;4.75;;;17.80;91.00;;;;;;4979502;28;20078;-58
2021/10/07 11:45:53;;;;;;;13.70;5.05;;;17.80;90.90;;;;;;4977341;28;20074;-58
2021/10/07 11:48:22;;;;;;;18.27;4.43;;;17.80;90.90;;;;;;4980413;28;20058;-58
2021/10/07 11:50:50;;;;;;;13.13;4.70;;;17.80;90.90;;;;;;4983256;28;20077;-58
2021/10/07 11:53:30;;;;;;;19.40;4.63;;;17.80;90.80;;;;;;4975716;28;20070;-58
2021/10/07 11:55:58;;;;;;;16.83;4.55;;;17.80;90.70;;;;;;4977366;28;20051;-59
2021/10/07 11:58:27;;;;;;;26.88;4.53;;;17.80;90.70;;;;;;4982845;28;20055;-58
2021/10/07 12:00:53;;;;;;;14.55;4.93;;;17.70;90.80;;;;;;4981822;28;20051;-58
2021/10/07 12:03:25;;;;;;;18.65;6.25;;;17.70;90.80;;;;;;4967545;28;20066;-58
2021/10/07 12:06:13;;;;;;;30.42;5.72;;;17.80;90.90;;;;;;4979216;28;20051;-57
2021/10/07 12:08:41;;;;;;;12.27;3.72;;;17.80;90.90;;;;;;4970224;28;20093;-58
2021/10/07 12:11:15;;;;;;;16.80;3.20;;;17.70;90.90;;;;;;4986488;28;20042;-59
2021/10/07 12:13:45;;;;;;;;;;;17.70;91.20;;;;;;4966117;28;20104;-60
2021/10/07 12:16:14;;;;;;;18.33;3.88;;;17.70;91.10;;;;;;4979567;28;19934;-59
2021/10/07 12:18:41;;;;;;;13.60;4.07;;;17.70;91.00;;;;;;4986426;28;20053;-58
2021/10/07 12:21:09;;;;;;;17.20;3.92;;;17.70;91.00;;;;;;4636174;28;9999772;-58
2021/10/07 12:23:59;;;;;;;11.80;2.65;;;17.70;90.90;;;;;;4982083;28;20625;-58
2021/10/07 12:26:42;;;;;;;8.77;3.65;;;17.70;91.00;;;;;;4977027;28;20054;-59
2021/10/07 12:29:14;;;;;;;12.40;4.38;;;17.70;91.10;;;;;;4962098;28;20046;-58
2021/10/07 12:31:49;;;;;;;12.55;4.10;;;17.70;91.00;;;;;;4976612;28;20059;-59
2021/10/07 12:34:16;;;;;;;12.88;3.63;;;17.60;90.90;;;;;;4980500;28;20058;-59
2021/10/07 12:36:45;;;;;;;11.85;4.63;;;17.60;91.00;;;;;;4976854;28;20059;-60
2021/10/07 12:39:25;;;;;;;11.10;3.90;;;17.60;91.00;;;;;;4972246;28;20133;-61
2021/10/07 12:41:53;;;;;;;11.75;3.45;;;17.70;91.10;;;;;;4977651;28;20069;-59
2021/10/07 12:44:46;;;;;;;11.75;3.53;;;17.70;91.00;;;;;;4981186;28;20050;-59
2021/10/07 12:47:28;;;;;;;15.27;3.78;;;17.60;91.10;;;;;;4977590;28;20122;-58
2021/10/07 12:50:15;;;;;;;13.63;4.82;;;17.60;91.30;;;;;;4962243;28;20058;-59
2021/10/07 12:52:46;;;;;;;15.45;3.55;;;17.60;91.20;;;;;;4974387;28;20051;-59
2021/10/07 12:55:15;;;;;;;15.52;4.07;;;17.50;91.00;;;;;;4962600;28;20085;-58